METAR AND TAF INFORMATION
METAR FOR LIPR
ADDS - METARS form results

(1012 UTC 21 January 2018)
Data provider http://aviationweather.gov/adds/metars/
 
METAR text: LIPR 210945Z 29011KT 4000 BR NSC 06/04 Q1006 RMK SKC VIS MIN 2500SE WIND THR31 31008KT YLO
Conditions at: LIPR (RIMINI (CIV/IT-A, IT) observed 0945 UTC 21 January 2018
Temperature: 6.0°C (43°F)
Dewpoint: 4.0°C (39°F) [RH = 87%]
Pressure (altimeter): 29.70 inches Hg (1006.0 mb)
Winds: from the WNW (290 degrees) at 13 MPH (11 knots; 5.7 m/s)
Visibility: 2.49 miles (4.01 km)
Ceiling: at least 12,000 feet AGL
Clouds: sky clear below 12,000 feet AGL
Weather: BR  (mist)

METAR text: LIPR 210915Z 28008KT 3500 BR NSC 06/04 Q1006
Conditions at: LIPR (RIMINI (CIV/IT-A, IT) observed 0915 UTC 21 January 2018
Temperature: 6.0°C (43°F)
Dewpoint: 4.0°C (39°F) [RH = 87%]
Pressure (altimeter): 29.70 inches Hg (1006.0 mb)
Winds: from the W (280 degrees) at 9 MPH (8 knots; 4.2 m/s)
Visibility: 2.17 miles (3.49 km)
Ceiling: at least 12,000 feet AGL
Clouds: sky clear below 12,000 feet AGL
Weather: BR  (mist)

Forecast for: LIPR (RIMINI (CIV/IT-A, IT)
Text: TAF LIPR 210800Z 2109/2118 32012KT 9999 SCT040
Forecast period: 0900 to 1800 UTC 21 January 2018
Forecast type: FROM: standard forecast or significant change
Winds: from the NW (320 degrees) at 14 MPH (12 knots; 6.2 m/s)
Visibility: 6 or more miles (10+ km)
Clouds: scattered clouds at 4000 feet AGL
Weather: no significant weather forecast for this period
Text: TEMPO 2109/2111 5000 BR
Forecast period: 0900 to 1100 UTC 21 January 2018
Forecast type: TEMPORARY: The following changes expected for less than half the time period
Visibility: 3 miles (5 km)
Weather: BR  (mist)
Text: TEMPO 2109/2118 32015G25KT
Forecast period: 0900 to 1800 UTC 21 January 2018
Forecast type: TEMPORARY: The following changes expected for less than half the time period
Winds: from the NW (320 degrees) at 17 MPH (15 knots; 7.8 m/s)
gusting to 29 MPH (25 knots; 13.0 m/s)
Weather: no significant weather forecast for this period

 AIRPORT MAP

 RUNWAY INFORMATION
Runway 13 Runway length 9828 ft Runway width 148 ft
Runway elevation 21 ft Runway displaced threshold 1030 ft Runway heading 128
Runway 31 Runway length 9828 ft Runway width 148 ft
Runway elevation 39 ft Runway displaced threshold 1006 ft Runway heading 308

 AIRPORT FREQUENCIES
Type APP Name ROMAGNA AP Frequency 36.23 MHZ
Type APP Name ROMAGNA AP Frequency 118.15 MHZ
Type GCCD Name GND/CLNC D Frequency 121.6 MHZ
Type TWR Name TWR Frequency 119.1 MHZ

 AIRPORT NEAR NAVIGATION AIDS
Type VORTAC Name Rimini Frequency 116200 KHZ
Type NDB Name Rimini Frequency 335 KHZ



v2.6.1